sensor_id;sensor_type;location;lat;lon;timestamp;P1;durP1;ratioP1;P2;durP2;ratioP2
24261;SDS011;12385;51.412;5.540;2023-06-22T00:00:55;5.82;;;2.50;;
24261;SDS011;12385;51.412;5.540;2023-06-22T00:03:22;4.10;;;2.00;;
24261;SDS011;12385;51.412;5.540;2023-06-22T00:08:18;5.85;;;2.50;;
24261;SDS011;12385;51.412;5.540;2023-06-22T00:10:44;5.25;;;2.88;;
24261;SDS011;12385;51.412;5.540;2023-06-22T00:13:11;4.90;;;2.97;;
24261;SDS011;12385;51.412;5.540;2023-06-22T00:15:37;5.70;;;2.78;;
24261;SDS011;12385;51.412;5.540;2023-06-22T00:18:07;5.78;;;2.80;;
24261;SDS011;12385;51.412;5.540;2023-06-22T00:23:02;4.95;;;2.92;;
24261;SDS011;12385;51.412;5.540;2023-06-22T00:25:36;5.43;;;3.38;;
24261;SDS011;12385;51.412;5.540;2023-06-22T00:28:06;5.45;;;3.40;;
24261;SDS011;12385;51.412;5.540;2023-06-22T00:30:34;6.10;;;3.10;;
24261;SDS011;12385;51.412;5.540;2023-06-22T00:33:00;4.55;;;2.90;;
24261;SDS011;12385;51.412;5.540;2023-06-22T00:35:26;7.30;;;3.38;;
24261;SDS011;12385;51.412;5.540;2023-06-22T00:37:56;5.63;;;3.65;;
24261;SDS011;12385;51.412;5.540;2023-06-22T00:40:32;7.00;;;4.32;;
24261;SDS011;12385;51.412;5.540;2023-06-22T00:42:58;6.97;;;3.70;;
24261;SDS011;12385;51.412;5.540;2023-06-22T00:45:24;5.90;;;4.03;;
24261;SDS011;12385;51.412;5.540;2023-06-22T00:47:51;15.85;;;4.80;;
24261;SDS011;12385;51.412;5.540;2023-06-22T00:50:18;9.55;;;4.80;;
24261;SDS011;12385;51.412;5.540;2023-06-22T00:52:56;7.43;;;4.53;;
24261;SDS011;12385;51.412;5.540;2023-06-22T00:55:23;8.10;;;4.93;;
24261;SDS011;12385;51.412;5.540;2023-06-22T00:57:50;9.70;;;5.40;;
24261;SDS011;12385;51.412;5.540;2023-06-22T01:00:20;9.65;;;6.13;;
24261;SDS011;12385;51.412;5.540;2023-06-22T01:02:49;10.17;;;6.83;;
24261;SDS011;12385;51.412;5.540;2023-06-22T01:05:17;11.70;;;6.88;;
24261;SDS011;12385;51.412;5.540;2023-06-22T01:16:09;11.15;;;7.10;;
24261;SDS011;12385;51.412;5.540;2023-06-22T01:18:42;9.70;;;6.68;;
24261;SDS011;12385;51.412;5.540;2023-06-22T01:21:11;10.20;;;6.82;;
24261;SDS011;12385;51.412;5.540;2023-06-22T01:31:16;10.30;;;6.75;;
24261;SDS011;12385;51.412;5.540;2023-06-22T01:33:44;11.00;;;7.60;;
24261;SDS011;12385;51.412;5.540;2023-06-22T01:36:11;12.25;;;7.75;;
24261;SDS011;12385;51.412;5.540;2023-06-22T01:38:39;9.27;;;7.88;;
24261;SDS011;12385;51.412;5.540;2023-06-22T01:41:06;13.35;;;8.65;;
24261;SDS011;12385;51.412;5.540;2023-06-22T01:43:32;11.68;;;8.13;;
24261;SDS011;12385;51.412;5.540;2023-06-22T01:46:00;13.10;;;8.80;;
24261;SDS011;12385;51.412;5.540;2023-06-22T01:48:27;9.70;;;7.82;;
24261;SDS011;12385;51.412;5.540;2023-06-22T01:50:53;11.57;;;7.68;;
24261;SDS011;12385;51.412;5.540;2023-06-22T01:53:23;9.43;;;7.88;;
24261;SDS011;12385;51.412;5.540;2023-06-22T01:55:49;12.98;;;8.20;;
24261;SDS011;12385;51.412;5.540;2023-06-22T01:58:15;11.27;;;7.90;;
24261;SDS011;12385;51.412;5.540;2023-06-22T02:00:44;12.65;;;7.97;;
24261;SDS011;12385;51.412;5.540;2023-06-22T02:03:23;10.38;;;7.90;;
24261;SDS011;12385;51.412;5.540;2023-06-22T02:06:06;12.40;;;8.02;;
24261;SDS011;12385;51.412;5.540;2023-06-22T02:08:40;11.93;;;8.45;;
24261;SDS011;12385;51.412;5.540;2023-06-22T02:11:09;11.60;;;8.23;;
24261;SDS011;12385;51.412;5.540;2023-06-22T02:13:38;11.50;;;7.90;;
24261;SDS011;12385;51.412;5.540;2023-06-22T02:16:10;11.93;;;7.68;;
24261;SDS011;12385;51.412;5.540;2023-06-22T02:18:38;11.43;;;7.35;;
24261;SDS011;12385;51.412;5.540;2023-06-22T02:21:05;11.93;;;7.93;;
24261;SDS011;12385;51.412;5.540;2023-06-22T02:23:32;11.13;;;7.20;;
24261;SDS011;12385;51.412;5.540;2023-06-22T02:26:01;10.85;;;7.70;;
24261;SDS011;12385;51.412;5.540;2023-06-22T02:28:27;12.25;;;7.60;;
24261;SDS011;12385;51.412;5.540;2023-06-22T02:30:53;14.68;;;8.23;;
24261;SDS011;12385;51.412;5.540;2023-06-22T02:33:19;12.48;;;8.10;;
24261;SDS011;12385;51.412;5.540;2023-06-22T02:35:44;14.18;;;8.60;;
24261;SDS011;12385;51.412;5.540;2023-06-22T02:38:14;10.88;;;8.30;;
24261;SDS011;12385;51.412;5.540;2023-06-22T02:40:40;12.38;;;8.23;;
24261;SDS011;12385;51.412;5.540;2023-06-22T02:43:05;14.18;;;8.52;;
24261;SDS011;12385;51.412;5.540;2023-06-22T02:45:31;12.88;;;9.18;;
24261;SDS011;12385;51.412;5.540;2023-06-22T02:47:57;12.90;;;8.98;;
24261;SDS011;12385;51.412;5.540;2023-06-22T02:50:23;13.10;;;9.30;;
24261;SDS011;12385;51.412;5.540;2023-06-22T02:52:49;13.15;;;8.80;;
24261;SDS011;12385;51.412;5.540;2023-06-22T02:55:14;12.13;;;9.13;;
24261;SDS011;12385;51.412;5.540;2023-06-22T02:57:40;14.93;;;9.40;;
24261;SDS011;12385;51.412;5.540;2023-06-22T03:00:10;12.13;;;9.68;;
24261;SDS011;12385;51.412;5.540;2023-06-22T03:02:42;15.30;;;10.07;;
24261;SDS011;12385;51.412;5.540;2023-06-22T03:05:11;13.57;;;9.18;;
24261;SDS011;12385;51.412;5.540;2023-06-22T03:07:42;12.43;;;9.23;;
24261;SDS011;12385;51.412;5.540;2023-06-22T03:10:08;15.65;;;10.00;;
24261;SDS011;12385;51.412;5.540;2023-06-22T03:12:35;11.77;;;9.32;;
24261;SDS011;12385;51.412;5.540;2023-06-22T03:15:02;15.38;;;9.63;;
24261;SDS011;12385;51.412;5.540;2023-06-22T03:17:29;16.13;;;10.40;;
24261;SDS011;12385;51.412;5.540;2023-06-22T03:19:55;13.43;;;10.10;;
24261;SDS011;12385;51.412;5.540;2023-06-22T03:22:21;14.93;;;10.10;;
24261;SDS011;12385;51.412;5.540;2023-06-22T03:24:47;15.02;;;10.52;;
24261;SDS011;12385;51.412;5.540;2023-06-22T03:27:12;13.27;;;10.57;;
24261;SDS011;12385;51.412;5.540;2023-06-22T03:29:38;14.18;;;10.60;;
24261;SDS011;12385;51.412;5.540;2023-06-22T03:32:04;15.15;;;10.73;;
24261;SDS011;12385;51.412;5.540;2023-06-22T03:34:31;16.20;;;10.88;;
24261;SDS011;12385;51.412;5.540;2023-06-22T03:36:58;15.85;;;11.27;;
24261;SDS011;12385;51.412;5.540;2023-06-22T03:39:28;17.08;;;10.60;;
24261;SDS011;12385;51.412;5.540;2023-06-22T03:44:19;15.27;;;11.23;;
24261;SDS011;12385;51.412;5.540;2023-06-22T03:46:45;15.07;;;11.02;;
24261;SDS011;12385;51.412;5.540;2023-06-22T03:49:11;15.27;;;11.48;;
24261;SDS011;12385;51.412;5.540;2023-06-22T03:51:36;14.55;;;11.02;;
24261;SDS011;12385;51.412;5.540;2023-06-22T03:54:02;15.90;;;11.02;;
24261;SDS011;12385;51.412;5.540;2023-06-22T03:56:28;15.35;;;10.45;;
24261;SDS011;12385;51.412;5.540;2023-06-22T03:58:53;14.77;;;11.30;;
24261;SDS011;12385;51.412;5.540;2023-06-22T04:01:21;18.48;;;11.38;;
24261;SDS011;12385;51.412;5.540;2023-06-22T04:03:47;16.30;;;11.52;;
24261;SDS011;12385;51.412;5.540;2023-06-22T04:06:14;16.95;;;11.55;;
24261;SDS011;12385;51.412;5.540;2023-06-22T04:08:40;16.05;;;11.48;;
24261;SDS011;12385;51.412;5.540;2023-06-22T04:11:06;17.48;;;12.98;;
24261;SDS011;12385;51.412;5.540;2023-06-22T04:13:31;20.15;;;12.23;;
24261;SDS011;12385;51.412;5.540;2023-06-22T04:15:58;17.23;;;11.77;;
24261;SDS011;12385;51.412;5.540;2023-06-22T04:18:26;16.47;;;11.57;;
24261;SDS011;12385;51.412;5.540;2023-06-22T04:20:51;16.40;;;12.18;;
24261;SDS011;12385;51.412;5.540;2023-06-22T04:23:17;19.60;;;12.05;;
24261;SDS011;12385;51.412;5.540;2023-06-22T04:25:43;15.18;;;11.90;;
24261;SDS011;12385;51.412;5.540;2023-06-22T04:28:08;16.33;;;12.10;;
24261;SDS011;12385;51.412;5.540;2023-06-22T04:30:37;15.73;;;12.02;;
24261;SDS011;12385;51.412;5.540;2023-06-22T04:33:11;14.13;;;11.80;;
24261;SDS011;12385;51.412;5.540;2023-06-22T04:35:40;13.93;;;11.05;;
24261;SDS011;12385;51.412;5.540;2023-06-22T04:38:07;17.63;;;12.18;;
24261;SDS011;12385;51.412;5.540;2023-06-22T04:40:33;16.67;;;12.68;;
24261;SDS011;12385;51.412;5.540;2023-06-22T04:42:58;16.27;;;12.00;;
24261;SDS011;12385;51.412;5.540;2023-06-22T04:45:28;23.15;;;12.55;;
24261;SDS011;12385;51.412;5.540;2023-06-22T04:47:54;15.45;;;12.68;;
24261;SDS011;12385;51.412;5.540;2023-06-22T04:50:20;19.02;;;13.43;;
24261;SDS011;12385;51.412;5.540;2023-06-22T04:52:47;17.90;;;13.57;;
24261;SDS011;12385;51.412;5.540;2023-06-22T04:55:13;18.80;;;13.52;;
24261;SDS011;12385;51.412;5.540;2023-06-22T04:57:43;16.73;;;12.90;;
24261;SDS011;12385;51.412;5.540;2023-06-22T05:00:22;20.25;;;13.70;;
24261;SDS011;12385;51.412;5.540;2023-06-22T05:02:48;19.85;;;14.23;;
24261;SDS011;12385;51.412;5.540;2023-06-22T05:05:14;16.48;;;13.48;;
24261;SDS011;12385;51.412;5.540;2023-06-22T05:07:47;18.23;;;14.35;;
24261;SDS011;12385;51.412;5.540;2023-06-22T05:10:18;21.23;;;15.10;;
24261;SDS011;12385;51.412;5.540;2023-06-22T05:12:45;19.23;;;14.90;;
24261;SDS011;12385;51.412;5.540;2023-06-22T05:15:11;18.27;;;14.65;;
24261;SDS011;12385;51.412;5.540;2023-06-22T05:17:37;16.45;;;14.65;;
24261;SDS011;12385;51.412;5.540;2023-06-22T05:20:10;21.10;;;15.70;;
24261;SDS011;12385;51.412;5.540;2023-06-22T05:22:36;21.75;;;14.98;;
24261;SDS011;12385;51.412;5.540;2023-06-22T05:25:04;19.70;;;14.85;;
24261;SDS011;12385;51.412;5.540;2023-06-22T05:27:31;24.35;;;16.48;;
24261;SDS011;12385;51.412;5.540;2023-06-22T05:29:57;20.65;;;16.25;;
24261;SDS011;12385;51.412;5.540;2023-06-22T05:32:23;19.75;;;16.05;;
24261;SDS011;12385;51.412;5.540;2023-06-22T05:34:48;22.25;;;15.57;;
24261;SDS011;12385;51.412;5.540;2023-06-22T05:37:14;20.23;;;15.40;;
24261;SDS011;12385;51.412;5.540;2023-06-22T05:39:39;21.25;;;16.13;;
24261;SDS011;12385;51.412;5.540;2023-06-22T05:42:05;23.02;;;16.83;;
24261;SDS011;12385;51.412;5.540;2023-06-22T05:44:32;24.55;;;16.35;;
24261;SDS011;12385;51.412;5.540;2023-06-22T05:46:59;19.75;;;16.30;;
24261;SDS011;12385;51.412;5.540;2023-06-22T05:49:25;21.83;;;16.65;;
24261;SDS011;12385;51.412;5.540;2023-06-22T05:51:57;21.42;;;16.67;;
24261;SDS011;12385;51.412;5.540;2023-06-22T05:54:23;21.40;;;16.70;;
24261;SDS011;12385;51.412;5.540;2023-06-22T05:56:49;22.33;;;16.67;;
24261;SDS011;12385;51.412;5.540;2023-06-22T05:59:14;21.27;;;17.17;;
24261;SDS011;12385;51.412;5.540;2023-06-22T06:01:42;22.85;;;17.35;;
24261;SDS011;12385;51.412;5.540;2023-06-22T06:04:08;22.75;;;16.85;;
24261;SDS011;12385;51.412;5.540;2023-06-22T06:06:34;23.38;;;18.85;;
24261;SDS011;12385;51.412;5.540;2023-06-22T06:08:59;21.85;;;17.80;;
24261;SDS011;12385;51.412;5.540;2023-06-22T06:11:25;24.92;;;19.00;;
24261;SDS011;12385;51.412;5.540;2023-06-22T06:13:51;24.45;;;17.63;;
24261;SDS011;12385;51.412;5.540;2023-06-22T06:16:17;22.25;;;17.15;;
24261;SDS011;12385;51.412;5.540;2023-06-22T06:18:42;23.10;;;17.52;;
24261;SDS011;12385;51.412;5.540;2023-06-22T06:21:08;28.10;;;17.73;;
24261;SDS011;12385;51.412;5.540;2023-06-22T06:23:36;23.70;;;16.88;;
24261;SDS011;12385;51.412;5.540;2023-06-22T06:26:01;22.67;;;16.55;;
24261;SDS011;12385;51.412;5.540;2023-06-22T06:28:27;22.33;;;17.85;;
24261;SDS011;12385;51.412;5.540;2023-06-22T06:30:53;25.55;;;17.20;;
24261;SDS011;12385;51.412;5.540;2023-06-22T06:33:19;26.13;;;16.23;;
24261;SDS011;12385;51.412;5.540;2023-06-22T06:35:46;33.30;;;16.92;;
24261;SDS011;12385;51.412;5.540;2023-06-22T06:38:11;30.05;;;16.42;;
24261;SDS011;12385;51.412;5.540;2023-06-22T06:40:37;23.48;;;16.88;;
24261;SDS011;12385;51.412;5.540;2023-06-22T06:43:02;28.15;;;17.08;;
24261;SDS011;12385;51.412;5.540;2023-06-22T06:45:30;23.20;;;16.92;;
24261;SDS011;12385;51.412;5.540;2023-06-22T06:47:58;20.33;;;16.35;;
24261;SDS011;12385;51.412;5.540;2023-06-22T06:50:23;23.02;;;16.67;;
24261;SDS011;12385;51.412;5.540;2023-06-22T06:52:49;20.63;;;15.82;;
24261;SDS011;12385;51.412;5.540;2023-06-22T06:55:15;20.75;;;16.00;;
24261;SDS011;12385;51.412;5.540;2023-06-22T06:57:41;20.40;;;15.60;;
24261;SDS011;12385;51.412;5.540;2023-06-22T07:00:08;19.58;;;15.50;;
24261;SDS011;12385;51.412;5.540;2023-06-22T07:02:40;20.35;;;15.40;;
24261;SDS011;12385;51.412;5.540;2023-06-22T07:05:08;21.55;;;15.35;;
24261;SDS011;12385;51.412;5.540;2023-06-22T07:07:34;19.30;;;14.55;;
24261;SDS011;12385;51.412;5.540;2023-06-22T07:10:00;20.90;;;14.20;;
24261;SDS011;12385;51.412;5.540;2023-06-22T07:12:26;18.55;;;14.27;;
24261;SDS011;12385;51.412;5.540;2023-06-22T07:14:51;20.98;;;15.75;;
24261;SDS011;12385;51.412;5.540;2023-06-22T07:17:19;19.88;;;15.73;;
24261;SDS011;12385;51.412;5.540;2023-06-22T07:19:45;22.90;;;15.20;;
24261;SDS011;12385;51.412;5.540;2023-06-22T07:22:10;26.45;;;15.30;;
24261;SDS011;12385;51.412;5.540;2023-06-22T07:24:36;20.30;;;15.77;;
24261;SDS011;12385;51.412;5.540;2023-06-22T07:27:02;20.00;;;15.77;;
24261;SDS011;12385;51.412;5.540;2023-06-22T07:29:28;23.52;;;16.67;;
24261;SDS011;12385;51.412;5.540;2023-06-22T07:31:54;25.15;;;17.35;;
24261;SDS011;12385;51.412;5.540;2023-06-22T07:34:21;23.75;;;17.00;;
24261;SDS011;12385;51.412;5.540;2023-06-22T07:36:47;20.90;;;16.77;;
24261;SDS011;12385;51.412;5.540;2023-06-22T07:39:14;23.75;;;17.23;;
24261;SDS011;12385;51.412;5.540;2023-06-22T07:41:40;18.50;;;15.55;;
24261;SDS011;12385;51.412;5.540;2023-06-22T07:44:07;20.55;;;15.85;;
24261;SDS011;12385;51.412;5.540;2023-06-22T07:46:32;23.08;;;16.35;;
24261;SDS011;12385;51.412;5.540;2023-06-22T07:48:58;21.80;;;15.90;;
24261;SDS011;12385;51.412;5.540;2023-06-22T07:51:25;21.48;;;14.95;;
24261;SDS011;12385;51.412;5.540;2023-06-22T07:53:51;19.85;;;14.90;;
24261;SDS011;12385;51.412;5.540;2023-06-22T07:56:16;21.05;;;15.10;;
24261;SDS011;12385;51.412;5.540;2023-06-22T07:58:46;20.60;;;14.43;;
24261;SDS011;12385;51.412;5.540;2023-06-22T08:01:12;22.73;;;15.57;;
24261;SDS011;12385;51.412;5.540;2023-06-22T08:03:42;22.52;;;14.90;;
24261;SDS011;12385;51.412;5.540;2023-06-22T08:06:09;19.63;;;14.98;;
24261;SDS011;12385;51.412;5.540;2023-06-22T08:08:35;22.08;;;14.75;;
24261;SDS011;12385;51.412;5.540;2023-06-22T08:11:01;16.30;;;13.65;;
24261;SDS011;12385;51.412;5.540;2023-06-22T08:13:27;17.90;;;13.55;;
24261;SDS011;12385;51.412;5.540;2023-06-22T08:15:52;19.85;;;13.40;;
24261;SDS011;12385;51.412;5.540;2023-06-22T08:18:18;17.95;;;13.77;;
24261;SDS011;12385;51.412;5.540;2023-06-22T08:20:44;17.52;;;13.20;;
24261;SDS011;12385;51.412;5.540;2023-06-22T08:23:11;17.20;;;13.40;;
24261;SDS011;12385;51.412;5.540;2023-06-22T08:25:36;16.25;;;12.95;;
24261;SDS011;12385;51.412;5.540;2023-06-22T08:28:03;16.25;;;13.23;;
24261;SDS011;12385;51.412;5.540;2023-06-22T08:30:30;15.77;;;13.18;;
24261;SDS011;12385;51.412;5.540;2023-06-22T08:32:56;19.05;;;13.35;;
24261;SDS011;12385;51.412;5.540;2023-06-22T08:35:23;18.77;;;13.07;;
24261;SDS011;12385;51.412;5.540;2023-06-22T08:37:48;16.90;;;12.65;;
24261;SDS011;12385;51.412;5.540;2023-06-22T08:40:20;16.23;;;12.48;;
24261;SDS011;12385;51.412;5.540;2023-06-22T08:42:46;15.63;;;12.63;;
24261;SDS011;12385;51.412;5.540;2023-06-22T08:45:13;18.73;;;12.52;;
24261;SDS011;12385;51.412;5.540;2023-06-22T08:47:39;18.92;;;12.68;;
24261;SDS011;12385;51.412;5.540;2023-06-22T08:50:06;21.63;;;13.43;;
24261;SDS011;12385;51.412;5.540;2023-06-22T08:52:33;17.15;;;13.88;;
24261;SDS011;12385;51.412;5.540;2023-06-22T08:54:59;20.60;;;13.68;;
24261;SDS011;12385;51.412;5.540;2023-06-22T08:57:25;16.63;;;13.15;;
24261;SDS011;12385;51.412;5.540;2023-06-22T08:59:51;15.38;;;12.88;;
24261;SDS011;12385;51.412;5.540;2023-06-22T09:02:18;16.45;;;12.82;;
24261;SDS011;12385;51.412;5.540;2023-06-22T09:04:45;16.65;;;13.48;;
24261;SDS011;12385;51.412;5.540;2023-06-22T09:07:11;17.60;;;13.85;;
24261;SDS011;12385;51.412;5.540;2023-06-22T09:09:37;18.23;;;14.07;;
24261;SDS011;12385;51.412;5.540;2023-06-22T09:12:03;17.50;;;14.18;;
24261;SDS011;12385;51.412;5.540;2023-06-22T09:14:29;21.63;;;14.52;;
24261;SDS011;12385;51.412;5.540;2023-06-22T09:16:54;23.38;;;14.20;;
24261;SDS011;12385;51.412;5.540;2023-06-22T09:19:24;19.95;;;15.07;;
24261;SDS011;12385;51.412;5.540;2023-06-22T09:24:15;22.20;;;14.88;;
24261;SDS011;12385;51.412;5.540;2023-06-22T09:26:42;18.17;;;14.23;;
24261;SDS011;12385;51.412;5.540;2023-06-22T09:29:07;19.65;;;14.38;;
24261;SDS011;12385;51.412;5.540;2023-06-22T09:31:33;18.92;;;14.88;;
24261;SDS011;12385;51.412;5.540;2023-06-22T09:33:58;16.85;;;15.00;;
24261;SDS011;12385;51.412;5.540;2023-06-22T09:36:24;18.83;;;15.65;;
24261;SDS011;12385;51.412;5.540;2023-06-22T09:38:50;19.25;;;15.13;;
24261;SDS011;12385;51.412;5.540;2023-06-22T09:41:24;20.63;;;15.20;;
24261;SDS011;12385;51.412;5.540;2023-06-22T09:43:50;21.50;;;15.77;;
24261;SDS011;12385;51.412;5.540;2023-06-22T09:46:16;23.58;;;15.73;;
24261;SDS011;12385;51.412;5.540;2023-06-22T09:48:42;19.63;;;14.60;;
24261;SDS011;12385;51.412;5.540;2023-06-22T09:51:08;22.17;;;15.30;;
24261;SDS011;12385;51.412;5.540;2023-06-22T09:53:34;17.20;;;14.98;;
24261;SDS011;12385;51.412;5.540;2023-06-22T09:56:00;20.08;;;15.30;;
24261;SDS011;12385;51.412;5.540;2023-06-22T09:58:27;18.77;;;14.98;;
24261;SDS011;12385;51.412;5.540;2023-06-22T10:00:52;20.55;;;15.93;;
24261;SDS011;12385;51.412;5.540;2023-06-22T10:03:19;21.70;;;15.05;;
24261;SDS011;12385;51.412;5.540;2023-06-22T10:05:45;20.83;;;15.80;;
24261;SDS011;12385;51.412;5.540;2023-06-22T10:08:10;19.13;;;16.00;;
24261;SDS011;12385;51.412;5.540;2023-06-22T10:10:36;20.98;;;14.50;;
24261;SDS011;12385;51.412;5.540;2023-06-22T10:13:06;20.20;;;15.52;;
24261;SDS011;12385;51.412;5.540;2023-06-22T10:15:36;20.10;;;15.70;;
24261;SDS011;12385;51.412;5.540;2023-06-22T10:18:02;20.92;;;15.48;;
24261;SDS011;12385;51.412;5.540;2023-06-22T10:20:28;17.23;;;14.13;;
24261;SDS011;12385;51.412;5.540;2023-06-22T10:22:54;23.73;;;15.45;;
24261;SDS011;12385;51.412;5.540;2023-06-22T10:25:21;20.38;;;15.52;;
24261;SDS011;12385;51.412;5.540;2023-06-22T10:27:47;21.98;;;15.18;;
24261;SDS011;12385;51.412;5.540;2023-06-22T10:30:13;20.25;;;16.40;;
24261;SDS011;12385;51.412;5.540;2023-06-22T10:32:39;20.17;;;15.25;;
24261;SDS011;12385;51.412;5.540;2023-06-22T10:35:05;20.60;;;16.35;;
24261;SDS011;12385;51.412;5.540;2023-06-22T10:37:31;22.20;;;14.90;;
24261;SDS011;12385;51.412;5.540;2023-06-22T10:39:57;21.75;;;15.80;;
24261;SDS011;12385;51.412;5.540;2023-06-22T10:42:24;21.15;;;17.10;;
24261;SDS011;12385;51.412;5.540;2023-06-22T10:44:49;22.55;;;17.38;;
24261;SDS011;12385;51.412;5.540;2023-06-22T10:47:15;24.85;;;18.75;;
24261;SDS011;12385;51.412;5.540;2023-06-22T10:49:41;28.10;;;20.10;;
24261;SDS011;12385;51.412;5.540;2023-06-22T10:52:07;28.85;;;20.75;;
24261;SDS011;12385;51.412;5.540;2023-06-22T10:54:33;25.55;;;21.20;;
24261;SDS011;12385;51.412;5.540;2023-06-22T10:57:00;28.20;;;22.98;;
24261;SDS011;12385;51.412;5.540;2023-06-22T10:59:27;36.95;;;27.80;;
24261;SDS011;12385;51.412;5.540;2023-06-22T11:01:53;36.97;;;27.83;;
24261;SDS011;12385;51.412;5.540;2023-06-22T11:04:21;40.20;;;30.35;;
24261;SDS011;12385;51.412;5.540;2023-06-22T11:06:47;41.80;;;31.63;;
24261;SDS011;12385;51.412;5.540;2023-06-22T11:09:14;46.90;;;34.38;;
24261;SDS011;12385;51.412;5.540;2023-06-22T11:11:45;43.60;;;34.58;;
24261;SDS011;12385;51.412;5.540;2023-06-22T11:14:11;46.97;;;33.90;;
24261;SDS011;12385;51.412;5.540;2023-06-22T11:16:36;46.65;;;34.90;;
24261;SDS011;12385;51.412;5.540;2023-06-22T11:19:04;49.40;;;35.95;;
24261;SDS011;12385;51.412;5.540;2023-06-22T11:21:30;53.80;;;38.40;;
24261;SDS011;12385;51.412;5.540;2023-06-22T11:23:56;57.05;;;38.08;;
24261;SDS011;12385;51.412;5.540;2023-06-22T11:26:22;58.60;;;39.90;;
24261;SDS011;12385;51.412;5.540;2023-06-22T11:28:48;63.88;;;42.25;;
24261;SDS011;12385;51.412;5.540;2023-06-22T11:31:14;70.43;;;45.33;;
24261;SDS011;12385;51.412;5.540;2023-06-22T11:33:39;59.03;;;41.40;;
24261;SDS011;12385;51.412;5.540;2023-06-22T11:36:05;58.10;;;41.20;;
24261;SDS011;12385;51.412;5.540;2023-06-22T11:41:04;56.08;;;41.13;;
24261;SDS011;12385;51.412;5.540;2023-06-22T11:43:33;57.58;;;41.78;;
24261;SDS011;12385;51.412;5.540;2023-06-22T11:45:59;71.30;;;47.10;;
24261;SDS011;12385;51.412;5.540;2023-06-22T11:48:25;56.90;;;42.10;;
24261;SDS011;12385;51.412;5.540;2023-06-22T11:50:51;57.60;;;41.70;;
24261;SDS011;12385;51.412;5.540;2023-06-22T11:53:17;62.78;;;44.17;;
24261;SDS011;12385;51.412;5.540;2023-06-22T11:55:43;62.80;;;44.42;;
24261;SDS011;12385;51.412;5.540;2023-06-22T11:58:09;60.42;;;45.25;;
24261;SDS011;12385;51.412;5.540;2023-06-22T12:00:35;57.88;;;43.72;;
24261;SDS011;12385;51.412;5.540;2023-06-22T12:03:00;71.57;;;47.00;;
24261;SDS011;12385;51.412;5.540;2023-06-22T12:05:26;63.55;;;46.50;;
24261;SDS011;12385;51.412;5.540;2023-06-22T12:07:55;65.78;;;46.17;;
24261;SDS011;12385;51.412;5.540;2023-06-22T12:10:21;62.53;;;44.65;;
24261;SDS011;12385;51.412;5.540;2023-06-22T12:12:48;66.18;;;46.83;;
24261;SDS011;12385;51.412;5.540;2023-06-22T12:15:13;59.10;;;44.72;;
24261;SDS011;12385;51.412;5.540;2023-06-22T12:17:39;57.22;;;42.50;;
24261;SDS011;12385;51.412;5.540;2023-06-22T12:20:06;55.83;;;42.85;;
24261;SDS011;12385;51.412;5.540;2023-06-22T12:22:33;52.17;;;40.60;;
24261;SDS011;12385;51.412;5.540;2023-06-22T12:25:00;58.20;;;40.53;;
24261;SDS011;12385;51.412;5.540;2023-06-22T12:27:26;45.10;;;37.58;;
24261;SDS011;12385;51.412;5.540;2023-06-22T12:29:52;43.45;;;35.33;;
24261;SDS011;12385;51.412;5.540;2023-06-22T12:32:17;47.00;;;37.55;;
24261;SDS011;12385;51.412;5.540;2023-06-22T12:34:44;55.33;;;39.75;;
24261;SDS011;12385;51.412;5.540;2023-06-22T12:37:09;52.45;;;40.10;;
24261;SDS011;12385;51.412;5.540;2023-06-22T12:39:35;51.55;;;39.33;;
24261;SDS011;12385;51.412;5.540;2023-06-22T12:42:01;47.08;;;38.55;;
24261;SDS011;12385;51.412;5.540;2023-06-22T12:44:26;49.47;;;39.08;;
24261;SDS011;12385;51.412;5.540;2023-06-22T12:46:54;50.03;;;39.03;;
24261;SDS011;12385;51.412;5.540;2023-06-22T12:49:20;51.10;;;39.13;;
24261;SDS011;12385;51.412;5.540;2023-06-22T12:51:45;52.10;;;39.85;;
24261;SDS011;12385;51.412;5.540;2023-06-22T12:54:11;54.22;;;40.90;;
24261;SDS011;12385;51.412;5.540;2023-06-22T12:56:37;54.17;;;42.03;;
24261;SDS011;12385;51.412;5.540;2023-06-22T12:59:03;53.72;;;42.35;;
24261;SDS011;12385;51.412;5.540;2023-06-22T13:01:29;52.38;;;41.70;;
24261;SDS011;12385;51.412;5.540;2023-06-22T13:03:56;51.03;;;41.35;;
24261;SDS011;12385;51.412;5.540;2023-06-22T13:06:22;48.30;;;38.30;;
24261;SDS011;12385;51.412;5.540;2023-06-22T13:08:47;48.78;;;38.20;;
24261;SDS011;12385;51.412;5.540;2023-06-22T13:11:13;49.92;;;38.08;;
24261;SDS011;12385;51.412;5.540;2023-06-22T13:13:39;43.85;;;35.40;;
24261;SDS011;12385;51.412;5.540;2023-06-22T13:16:05;48.15;;;37.40;;
24261;SDS011;12385;51.412;5.540;2023-06-22T13:18:30;46.85;;;37.17;;
24261;SDS011;12385;51.412;5.540;2023-06-22T13:20:56;49.80;;;37.38;;
24261;SDS011;12385;51.412;5.540;2023-06-22T13:23:23;45.60;;;37.15;;
24261;SDS011;12385;51.412;5.540;2023-06-22T13:25:48;48.20;;;37.67;;
24261;SDS011;12385;51.412;5.540;2023-06-22T13:28:14;42.83;;;34.10;;
24261;SDS011;12385;51.412;5.540;2023-06-22T13:30:42;40.13;;;33.97;;
24261;SDS011;12385;51.412;5.540;2023-06-22T13:33:10;41.75;;;35.25;;
24261;SDS011;12385;51.412;5.540;2023-06-22T13:35:36;39.20;;;32.85;;
24261;SDS011;12385;51.412;5.540;2023-06-22T13:38:04;42.60;;;34.78;;
24261;SDS011;12385;51.412;5.540;2023-06-22T13:40:30;39.92;;;34.90;;
24261;SDS011;12385;51.412;5.540;2023-06-22T13:42:56;44.33;;;34.35;;
24261;SDS011;12385;51.412;5.540;2023-06-22T13:45:21;36.83;;;31.48;;
24261;SDS011;12385;51.412;5.540;2023-06-22T13:47:47;38.22;;;33.20;;
24261;SDS011;12385;51.412;5.540;2023-06-22T13:50:13;38.75;;;33.42;;
24261;SDS011;12385;51.412;5.540;2023-06-22T13:52:43;41.42;;;33.20;;
24261;SDS011;12385;51.412;5.540;2023-06-22T13:55:08;41.15;;;32.85;;
24261;SDS011;12385;51.412;5.540;2023-06-22T13:57:34;40.40;;;32.47;;
24261;SDS011;12385;51.412;5.540;2023-06-22T14:00:00;40.45;;;31.58;;
24261;SDS011;12385;51.412;5.540;2023-06-22T14:02:27;35.72;;;31.15;;
24261;SDS011;12385;51.412;5.540;2023-06-22T14:04:53;34.65;;;29.50;;
24261;SDS011;12385;51.412;5.540;2023-06-22T14:07:19;39.20;;;31.40;;
24261;SDS011;12385;51.412;5.540;2023-06-22T14:09:45;38.95;;;32.45;;
24261;SDS011;12385;51.412;5.540;2023-06-22T14:12:11;45.50;;;33.83;;
24261;SDS011;12385;51.412;5.540;2023-06-22T14:14:37;41.58;;;33.67;;
24261;SDS011;12385;51.412;5.540;2023-06-22T14:17:03;43.00;;;34.08;;
24261;SDS011;12385;51.412;5.540;2023-06-22T14:19:30;41.35;;;34.20;;
24261;SDS011;12385;51.412;5.540;2023-06-22T14:21:55;45.50;;;34.50;;
24261;SDS011;12385;51.412;5.540;2023-06-22T14:24:22;46.03;;;37.35;;
24261;SDS011;12385;51.412;5.540;2023-06-22T14:26:48;47.70;;;38.78;;
24261;SDS011;12385;51.412;5.540;2023-06-22T14:29:13;54.17;;;40.42;;
24261;SDS011;12385;51.412;5.540;2023-06-22T14:31:39;54.33;;;40.38;;
24261;SDS011;12385;51.412;5.540;2023-06-22T14:34:05;58.55;;;41.22;;
24261;SDS011;12385;51.412;5.540;2023-06-22T14:36:31;58.10;;;40.25;;
24261;SDS011;12385;51.412;5.540;2023-06-22T14:38:57;63.28;;;42.65;;
24261;SDS011;12385;51.412;5.540;2023-06-22T14:41:22;55.75;;;37.97;;
24261;SDS011;12385;51.412;5.540;2023-06-22T14:43:49;53.38;;;38.60;;
24261;SDS011;12385;51.412;5.540;2023-06-22T14:46:17;45.90;;;35.65;;
24261;SDS011;12385;51.412;5.540;2023-06-22T14:48:44;55.22;;;38.80;;
24261;SDS011;12385;51.412;5.540;2023-06-22T14:51:10;58.78;;;42.53;;